Angicos, Brazil
Current Conditions -  °F | °C
As of 10:00 AM on Thursday 27 Nov 2014 (Local Time) from SBMS Reporting Station
Broken Clouds Broken Clouds  
Wind Chill: 88°   Ceiling: 2000
Heat Index: 91°   Visibility: 6mi
Dew Point: 68°   Wind: 3mph
Humidity: 52%   Direction: 80°E
Pressure: 29.91"   Gusts: NA
Location:  5.67°S, 36.6°W
Report Text: SBMS 271300Z 08003KT 9999 BKN020 31/20 Q1013
Loading
Personal Weather Stations






























Interactive Weather Map New forecast layout! Learn more

10-Day Weather Forecast

Advertisements
Track Severe Weather on mobile